Time;durP1;ratioP1;P1;durP2;ratioP2;P2;SDS_P1;SDS_P2;PMS_P1;PMS_P2;Temp;Humidity;BMP_temperature;BMP_pressure;BME280_temperature;BME280_humidity;BME280_pressure;Samples;Min_cycle;Max_cycle;Signal;HPM_P1;HPM_P2
2023/03/01 00:01:27;;;;;;;22.42;14.25;;;;;;;;;;5104301;28;20199;-69
2023/03/01 00:03:54;;;;;;;21.73;14.68;;;;;;;;;;5104733;28;20242;-69
2023/03/01 00:06:21;;;;;;;22.60;14.45;;;;;;;;;;5104279;28;20211;-69
2023/03/01 00:08:48;;;;;;;23.13;14.25;;;;;;;;;;5104339;28;20195;-69
2023/03/01 00:11:14;;;;;;;21.27;14.40;;;;;;;;;;5104282;28;20366;-69
2023/03/01 00:13:42;;;;;;;21.50;14.10;;;;;;;;;;5104218;28;20426;-69
2023/03/01 00:16:09;;;;;;;20.40;14.25;;;;;;;;;;5104120;28;20211;-69
2023/03/01 00:18:36;;;;;;;21.33;13.82;;;;;;;;;;5095852;28;20199;-69
2023/03/01 00:21:02;;;;;;;21.23;13.30;;;;;;;;;;5104352;28;20203;-69
2023/03/01 00:23:28;;;;;;;20.80;13.18;;;;;;;;;;5104021;28;20204;-68
2023/03/01 00:25:55;;;;;;;15.32;12.98;;;;;;;;;;5103886;28;20226;-68
2023/03/01 00:28:21;;;;;;;17.80;12.93;;;;;;;;;;5103705;28;20227;-68
2023/03/01 00:30:49;;;;;;;18.42;12.75;;;;;;;;;;5104400;28;20203;-68
2023/03/01 00:33:15;;;;;;;18.30;12.65;;;;;;;;;;5103853;28;20199;-68
2023/03/01 00:35:41;;;;;;;16.70;12.93;;;;;;;;;;5104080;28;20534;-68
2023/03/01 00:38:08;;;;;;;17.23;13.02;;;;;;;;;;5103741;28;20217;-68
2023/03/01 00:40:34;;;;;;;20.23;12.40;;;;;;;;;;5103589;28;20223;-68
2023/03/01 00:43:01;;;;;;;17.00;12.68;;;;;;;;;;5103711;28;20195;-68
2023/03/01 00:45:27;;;;;;;17.77;12.80;;;;;;;;;;5103617;28;20204;-68
2023/03/01 00:47:55;;;;;;;20.58;12.68;;;;;;;;;;5103520;28;20196;-68
2023/03/01 00:50:21;;;;;;;19.40;12.10;;;;;;;;;;5103510;28;20196;-68
2023/03/01 00:52:47;;;;;;;16.10;12.48;;;;;;;;;;5103671;28;20400;-68
2023/03/01 00:55:14;;;;;;;20.45;13.10;;;;;;;;;;5103452;28;20203;-68
2023/03/01 00:57:40;;;;;;;20.60;13.98;;;;;;;;;;5103173;28;20196;-68
2023/03/01 01:00:07;;;;;;;23.05;13.85;;;;;;;;;;5103431;28;20223;-68
2023/03/01 01:02:34;;;;;;;23.02;13.02;;;;;;;;;;5103431;28;20199;-68
2023/03/01 01:05:01;;;;;;;16.20;12.68;;;;;;;;;;5103244;28;20208;-68
2023/03/01 01:07:28;;;;;;;19.98;13.48;;;;;;;;;;5103267;28;20507;-68
2023/03/01 01:09:54;;;;;;;16.77;12.30;;;;;;;;;;5103076;28;20564;-68
2023/03/01 01:12:20;;;;;;;23.92;13.77;;;;;;;;;;5103110;28;20204;-68
2023/03/01 01:14:47;;;;;;;19.15;13.43;;;;;;;;;;5103272;28;20195;-68
2023/03/01 01:17:13;;;;;;;22.00;13.55;;;;;;;;;;5103022;28;20202;-68
2023/03/01 01:19:39;;;;;;;17.15;12.73;;;;;;;;;;5094834;28;20212;-68
2023/03/01 01:22:07;;;;;;;17.95;13.25;;;;;;;;;;5103044;28;20199;-68
2023/03/01 01:24:33;;;;;;;19.42;13.82;;;;;;;;;;5102770;28;20503;-68
2023/03/01 01:26:59;;;;;;;19.15;13.43;;;;;;;;;;5102670;28;20195;-68
2023/03/01 01:29:25;;;;;;;17.90;12.60;;;;;;;;;;5103092;28;20203;-68
2023/03/01 01:31:52;;;;;;;18.38;13.52;;;;;;;;;;5102753;28;20241;-68
2023/03/01 01:34:19;;;;;;;20.13;13.77;;;;;;;;;;5102810;28;20204;-68
2023/03/01 01:36:48;;;;;;;20.17;12.80;;;;;;;;;;5102830;28;20249;-68
2023/03/01 01:39:16;;;;;;;17.27;13.48;;;;;;;;;;5102666;28;20211;-68
2023/03/01 01:41:42;;;;;;;22.75;14.70;;;;;;;;;;5100904;28;20196;-68
2023/03/01 01:44:13;;;;;;;20.50;14.55;;;;;;;;;;5102806;28;20457;-68
2023/03/01 01:46:41;;;;;;;18.08;12.80;;;;;;;;;;5102560;28;20223;-68
2023/03/01 01:49:11;;;;;;;17.70;13.13;;;;;;;;;;5102573;28;20195;-68
2023/03/01 01:51:39;;;;;;;19.48;14.55;;;;;;;;;;5102434;28;20504;-68
2023/03/01 01:54:09;;;;;;;20.10;13.50;;;;;;;;;;5102709;28;20196;-68
2023/03/01 01:56:39;;;;;;;20.02;13.68;;;;;;;;;;5101682;28;20253;-68
2023/03/01 01:59:05;;;;;;;20.48;14.18;;;;;;;;;;5102526;28;20234;-68
2023/03/01 02:01:31;;;;;;;18.40;13.80;;;;;;;;;;5102504;28;20245;-68
2023/03/01 02:03:58;;;;;;;18.40;13.65;;;;;;;;;;5102409;28;20199;-68
2023/03/01 02:09:27;;;;;;;20.02;13.85;;;;;;;;;;5101900;28;20194;-68
2023/03/01 02:11:55;;;;;;;20.27;14.20;;;;;;;;;;5102336;28;20195;-68
2023/03/01 02:14:21;;;;;;;19.52;13.80;;;;;;;;;;5102140;28;20499;-68
2023/03/01 02:16:48;;;;;;;20.85;14.77;;;;;;;;;;5102031;28;20254;-68
2023/03/01 02:19:20;;;;;;;22.48;14.55;;;;;;;;;;5102170;28;20207;-68
2023/03/01 02:21:50;;;;;;;20.08;13.65;;;;;;;;;;5094484;28;20237;-68
2023/03/01 02:24:22;;;;;;;23.17;14.88;;;;;;;;;;5101955;28;20203;-68
2023/03/01 02:26:52;;;;;;;22.63;13.93;;;;;;;;;;5094345;28;20195;-68
2023/03/01 02:29:19;;;;;;;21.05;14.05;;;;;;;;;;5101848;28;20223;-68
2023/03/01 02:31:45;;;;;;;19.00;14.02;;;;;;;;;;5102114;28;20196;-68
2023/03/01 02:34:13;;;;;;;21.38;14.85;;;;;;;;;;5102185;28;20192;-68
2023/03/01 02:36:40;;;;;;;23.25;13.93;;;;;;;;;;5101730;28;20199;-68
2023/03/01 02:39:07;;;;;;;19.95;14.50;;;;;;;;;;5101869;28;20525;-68
2023/03/01 02:41:36;;;;;;;17.55;13.63;;;;;;;;;;5101876;28;20215;-68
2023/03/01 02:44:02;;;;;;;18.92;13.70;;;;;;;;;;5102210;28;20207;-68
2023/03/01 02:46:30;;;;;;;19.95;13.32;;;;;;;;;;5101578;28;20199;-68
2023/03/01 02:48:57;;;;;;;19.35;13.98;;;;;;;;;;5101961;28;20195;-68
2023/03/01 02:51:28;;;;;;;18.73;14.00;;;;;;;;;;5101566;28;20196;-68
2023/03/01 02:54:01;;;;;;;18.60;13.85;;;;;;;;;;5102015;28;20199;-68
2023/03/01 02:56:27;;;;;;;19.77;13.30;;;;;;;;;;5101643;28;20222;-68
2023/03/01 02:58:54;;;;;;;19.27;13.93;;;;;;;;;;5101776;28;20245;-68
2023/03/01 03:01:20;;;;;;;20.25;14.20;;;;;;;;;;5101510;28;20588;-68
2023/03/01 03:03:48;;;;;;;18.40;14.23;;;;;;;;;;5101765;28;20196;-68
2023/03/01 03:06:14;;;;;;;23.17;14.35;;;;;;;;;;5101502;28;20200;-68
2023/03/01 03:08:40;;;;;;;19.65;13.73;;;;;;;;;;5102820;28;20212;-68
2023/03/01 03:11:06;;;;;;;19.55;14.32;;;;;;;;;;5105741;28;20192;-68
2023/03/01 03:13:33;;;;;;;18.25;13.63;;;;;;;;;;5105462;28;20200;-68
2023/03/01 03:15:59;;;;;;;19.65;14.07;;;;;;;;;;5105452;28;20196;-68
2023/03/01 03:18:26;;;;;;;19.95;14.25;;;;;;;;;;5105031;28;20204;-68
2023/03/01 03:20:54;;;;;;;21.35;14.50;;;;;;;;;;5105637;28;20601;-68
2023/03/01 03:23:21;;;;;;;20.58;14.43;;;;;;;;;;5105566;28;20200;-68
2023/03/01 03:25:48;;;;;;;18.65;14.00;;;;;;;;;;5097117;28;20202;-68
2023/03/01 03:28:15;;;;;;;18.58;13.65;;;;;;;;;;5105090;28;20253;-68
2023/03/01 03:30:42;;;;;;;21.10;15.10;;;;;;;;;;5105090;28;20207;-68
2023/03/01 03:33:09;;;;;;;23.23;14.30;;;;;;;;;;5105084;28;20273;-68
2023/03/01 03:35:39;;;;;;;18.42;14.02;;;;;;;;;;5105381;28;20487;-68
2023/03/01 03:38:15;;;;;;;21.67;14.63;;;;;;;;;;5105133;28;20267;-68
2023/03/01 03:40:42;;;;;;;17.48;14.02;;;;;;;;;;5104935;28;20295;-68
2023/03/01 03:43:09;;;;;;;21.80;15.32;;;;;;;;;;5104873;28;20203;-68
2023/03/01 03:45:36;;;;;;;19.42;14.93;;;;;;;;;;5104782;28;20255;-68
2023/03/01 03:48:02;;;;;;;21.88;15.35;;;;;;;;;;5104985;28;20199;-68
2023/03/01 03:50:29;;;;;;;20.05;14.75;;;;;;;;;;5104823;28;20558;-68
2023/03/01 03:52:55;;;;;;;24.20;15.90;;;;;;;;;;5105008;28;20565;-68
2023/03/01 03:55:27;;;;;;;20.45;14.73;;;;;;;;;;5104995;28;20245;-68
2023/03/01 03:57:54;;;;;;;20.05;13.82;;;;;;;;;;5097114;28;20414;-68
2023/03/01 04:00:23;;;;;;;21.30;15.50;;;;;;;;;;5104941;28;20430;-68
2023/03/01 04:02:50;;;;;;;21.67;15.25;;;;;;;;;;5096649;28;20218;-68
2023/03/01 04:05:18;;;;;;;21.48;15.10;;;;;;;;;;5104856;28;20211;-68
2023/03/01 04:07:44;;;;;;;22.10;15.65;;;;;;;;;;5104303;28;20203;-68
2023/03/01 04:10:12;;;;;;;22.35;15.60;;;;;;;;;;5104402;28;20245;-68
2023/03/01 04:12:39;;;;;;;20.08;15.10;;;;;;;;;;5104501;28;20560;-68
2023/03/01 04:15:12;;;;;;;23.60;15.25;;;;;;;;;;5104778;28;20204;-68
2023/03/01 04:17:39;;;;;;;24.50;15.35;;;;;;;;;;5104357;28;20222;-68
2023/03/01 04:20:06;;;;;;;22.08;15.27;;;;;;;;;;5104201;28;20220;-68
2023/03/01 04:22:34;;;;;;;22.02;15.02;;;;;;;;;;5104211;28;20207;-68
2023/03/01 04:25:01;;;;;;;22.58;15.73;;;;;;;;;;5104355;28;20482;-68
2023/03/01 04:27:28;;;;;;;23.20;16.23;;;;;;;;;;5103798;28;20284;-68
2023/03/01 04:29:55;;;;;;;22.25;16.02;;;;;;;;;;5104128;28;20196;-68
2023/03/01 04:32:21;;;;;;;23.48;16.20;;;;;;;;;;5104166;28;20213;-68
2023/03/01 04:34:48;;;;;;;24.35;16.70;;;;;;;;;;5104602;28;20221;-68
2023/03/01 04:37:15;;;;;;;22.33;16.48;;;;;;;;;;5103797;28;20196;-68
2023/03/01 04:39:47;;;;;;;24.77;16.02;;;;;;;;;;5103677;28;20272;-68
2023/03/01 04:42:13;;;;;;;27.52;16.33;;;;;;;;;;5104045;28;20195;-68
2023/03/01 04:44:40;;;;;;;21.52;15.43;;;;;;;;;;5104147;28;20208;-68
2023/03/01 04:47:07;;;;;;;23.42;16.50;;;;;;;;;;5103611;28;20241;-68
2023/03/01 04:49:33;;;;;;;21.67;15.93;;;;;;;;;;5103692;28;20200;-68
2023/03/01 04:52:01;;;;;;;21.45;15.93;;;;;;;;;;5103897;28;20208;-68
2023/03/01 04:54:28;;;;;;;22.98;15.65;;;;;;;;;;5103509;28;20191;-68
2023/03/01 04:56:54;;;;;;;23.63;16.63;;;;;;;;;;5103645;28;20387;-68
2023/03/01 04:59:22;;;;;;;21.65;15.85;;;;;;;;;;5103876;28;20507;-68
2023/03/01 05:01:48;;;;;;;21.63;16.60;;;;;;;;;;5103467;28;20251;-68
2023/03/01 05:04:16;;;;;;;21.42;15.60;;;;;;;;;;5103638;28;20203;-68
2023/03/01 05:06:42;;;;;;;22.95;15.88;;;;;;;;;;5102983;28;20203;-68
2023/03/01 05:09:08;;;;;;;26.65;17.05;;;;;;;;;;5103478;28;20221;-68
2023/03/01 05:11:35;;;;;;;23.85;17.48;;;;;;;;;;5103403;28;20203;-68
2023/03/01 05:14:02;;;;;;;25.95;17.60;;;;;;;;;;5103313;28;20202;-68
2023/03/01 05:16:30;;;;;;;22.58;16.60;;;;;;;;;;5103148;28;20199;-68
2023/03/01 05:18:56;;;;;;;22.95;16.58;;;;;;;;;;5103198;28;20406;-68
2023/03/01 05:21:24;;;;;;;22.85;16.50;;;;;;;;;;5102978;28;20223;-68
2023/03/01 05:23:50;;;;;;;24.75;16.10;;;;;;;;;;5103284;28;20195;-68
2023/03/01 05:26:18;;;;;;;22.83;16.17;;;;;;;;;;5103073;28;20200;-68
2023/03/01 05:28:44;;;;;;;26.10;16.88;;;;;;;;;;5102830;28;20211;-68
2023/03/01 05:31:10;;;;;;;22.67;16.20;;;;;;;;;;5102125;28;20191;-68
2023/03/01 05:33:37;;;;;;;25.17;16.58;;;;;;;;;;5102823;28;20204;-68
2023/03/01 05:36:03;;;;;;;28.08;16.65;;;;;;;;;;5102721;28;20200;-68
2023/03/01 05:38:31;;;;;;;24.90;16.50;;;;;;;;;;5102472;28;20245;-68
2023/03/01 05:40:57;;;;;;;23.65;16.50;;;;;;;;;;5102774;28;20449;-68
2023/03/01 05:43:23;;;;;;;23.42;16.35;;;;;;;;;;5102575;28;20499;-68
2023/03/01 05:45:50;;;;;;;25.33;17.17;;;;;;;;;;5102598;28;20541;-68
2023/03/01 05:48:16;;;;;;;29.17;17.58;;;;;;;;;;5102361;28;20228;-69
2023/03/01 05:50:43;;;;;;;24.33;16.05;;;;;;;;;;5102355;28;20196;-69
2023/03/01 05:53:11;;;;;;;21.33;15.63;;;;;;;;;;5102827;28;20525;-69
2023/03/01 05:55:38;;;;;;;23.38;17.25;;;;;;;;;;5102273;28;20199;-69
2023/03/01 05:58:07;;;;;;;24.13;17.27;;;;;;;;;;5102333;28;20477;-69
2023/03/01 06:00:33;;;;;;;21.52;15.70;;;;;;;;;;5102222;28;20223;-69
2023/03/01 06:03:00;;;;;;;23.63;16.50;;;;;;;;;;5102423;28;20234;-69
2023/03/01 06:05:27;;;;;;;29.38;17.75;;;;;;;;;;5102282;28;20213;-69
2023/03/01 06:07:54;;;;;;;25.90;16.95;;;;;;;;;;5102204;28;20218;-69
2023/03/01 06:10:21;;;;;;;25.90;17.83;;;;;;;;;;5102308;28;20440;-69
2023/03/01 06:12:49;;;;;;;26.70;17.20;;;;;;;;;;5102309;28;20200;-69
2023/03/01 06:15:16;;;;;;;26.40;17.10;;;;;;;;;;5102249;28;20210;-69
2023/03/01 06:17:43;;;;;;;26.20;16.73;;;;;;;;;;5101783;28;20204;-69
2023/03/01 06:20:12;;;;;;;21.55;16.30;;;;;;;;;;5102545;28;20499;-69
2023/03/01 06:22:38;;;;;;;25.20;17.48;;;;;;;;;;5102104;28;20523;-69
2023/03/01 06:25:05;;;;;;;23.80;16.20;;;;;;;;;;5102285;28;20196;-69
2023/03/01 06:27:31;;;;;;;22.15;16.02;;;;;;;;;;5102124;28;20220;-69
2023/03/01 06:29:59;;;;;;;23.30;16.67;;;;;;;;;;5102195;28;20208;-69
2023/03/01 06:32:25;;;;;;;23.27;16.70;;;;;;;;;;5102042;28;20208;-69
2023/03/01 06:34:51;;;;;;;23.48;17.33;;;;;;;;;;5102210;28;20204;-69
2023/03/01 06:37:18;;;;;;;22.77;17.25;;;;;;;;;;5102129;28;20523;-69
2023/03/01 06:39:44;;;;;;;27.08;18.02;;;;;;;;;;5102111;28;20207;-70
2023/03/01 06:42:11;;;;;;;25.63;16.58;;;;;;;;;;5102586;28;20530;-70
2023/03/01 06:44:37;;;;;;;25.13;17.30;;;;;;;;;;5105945;28;20420;-69
2023/03/01 06:47:05;;;;;;;24.38;16.65;;;;;;;;;;5105625;28;20195;-69
2023/03/01 06:49:31;;;;;;;25.48;16.25;;;;;;;;;;5105963;28;20211;-69
2023/03/01 06:51:57;;;;;;;24.33;16.45;;;;;;;;;;5105859;28;20521;-69
2023/03/01 06:54:24;;;;;;;22.13;15.73;;;;;;;;;;5105780;28;20225;-69
2023/03/01 06:56:50;;;;;;;23.77;16.25;;;;;;;;;;5105848;28;20556;-69
2023/03/01 06:59:17;;;;;;;21.85;16.25;;;;;;;;;;5105595;28;20210;-69
2023/03/01 07:01:44;;;;;;;22.83;15.95;;;;;;;;;;5105469;28;20243;-69
2023/03/01 07:04:11;;;;;;;28.65;16.67;;;;;;;;;;5105662;28;20200;-69
2023/03/01 07:06:38;;;;;;;23.60;16.38;;;;;;;;;;5105182;28;20418;-69
2023/03/01 07:09:04;;;;;;;25.77;16.90;;;;;;;;;;5105360;28;20500;-69
2023/03/01 07:11:30;;;;;;;24.25;16.08;;;;;;;;;;5093659;28;20715;-69
2023/03/01 07:13:58;;;;;;;24.92;17.05;;;;;;;;;;5090589;28;20212;-69
2023/03/01 07:16:24;;;;;;;27.35;17.05;;;;;;;;;;5091226;28;20286;-61
2023/03/01 07:18:50;;;;;;;23.23;16.40;;;;;;;;;;5092775;28;20223;-60
2023/03/01 07:21:18;;;;;;;31.33;18.05;;;;;;;;;;5099147;28;20231;-60
2023/03/01 07:23:44;;;;;;;22.95;16.33;;;;;;;;;;5093239;28;20219;-60
2023/03/01 07:26:10;;;;;;;25.17;17.38;;;;;;;;;;5091616;28;20550;-61
2023/03/01 07:28:38;;;;;;;28.52;17.80;;;;;;;;;;5093900;28;20463;-61
2023/03/01 07:31:05;;;;;;;25.05;18.13;;;;;;;;;;5094928;28;20603;-60
2023/03/01 07:33:32;;;;;;;26.73;17.73;;;;;;;;;;5096763;28;20572;-60
2023/03/01 07:35:58;;;;;;;30.83;16.95;;;;;;;;;;5097719;28;20212;-60
2023/03/01 07:38:26;;;;;;;26.27;17.55;;;;;;;;;;5097648;28;20212;-61
2023/03/01 07:40:52;;;;;;;24.40;16.35;;;;;;;;;;5097439;28;20486;-60
2023/03/01 07:43:19;;;;;;;25.08;15.95;;;;;;;;;;5096841;28;20223;-59
2023/03/01 07:45:45;;;;;;;22.80;16.52;;;;;;;;;;5097397;28;20257;-60
2023/03/01 07:48:11;;;;;;;24.10;16.92;;;;;;;;;;5097316;28;20211;-59
2023/03/01 07:50:37;;;;;;;24.23;17.40;;;;;;;;;;5097032;28;20211;-59
2023/03/01 07:53:04;;;;;;;26.65;17.27;;;;;;;;;;5096118;28;20542;-59
2023/03/01 07:55:32;;;;;;;26.08;17.02;;;;;;;;;;5095688;28;20215;-60
2023/03/01 07:57:58;;;;;;;22.98;16.92;;;;;;;;;;5097076;28;20208;-60
2023/03/01 08:00:24;;;;;;;24.10;16.73;;;;;;;;;;5097116;28;20211;-60
2023/03/01 08:02:50;;;;;;;23.38;17.48;;;;;;;;;;5095497;28;20232;-60
2023/03/01 08:05:17;;;;;;;25.17;17.15;;;;;;;;;;5097481;28;20253;-60
2023/03/01 08:07:43;;;;;;;24.60;16.80;;;;;;;;;;5097317;28;20256;-60
2023/03/01 08:10:10;;;;;;;24.30;17.00;;;;;;;;;;5097678;28;20283;-59
2023/03/01 08:12:38;;;;;;;26.95;17.30;;;;;;;;;;5096715;28;20207;-59
2023/03/01 08:15:05;;;;;;;24.25;17.50;;;;;;;;;;5096896;28;20211;-60
2023/03/01 08:17:31;;;;;;;25.85;17.75;;;;;;;;;;5095064;28;20219;-61
2023/03/01 08:19:57;;;;;;;25.88;16.60;;;;;;;;;;5091049;28;20215;-60
2023/03/01 08:22:23;;;;;;;24.50;17.15;;;;;;;;;;5089728;28;20260;-61
2023/03/01 08:24:49;;;;;;;28.13;17.65;;;;;;;;;;5090634;28;20310;-60
2023/03/01 08:27:16;;;;;;;25.30;17.85;;;;;;;;;;5088181;28;20281;-61
2023/03/01 08:29:44;;;;;;;24.23;17.13;;;;;;;;;;5093250;28;20216;-60
2023/03/01 08:32:10;;;;;;;24.92;17.35;;;;;;;;;;5096255;28;20211;-60
2023/03/01 08:34:36;;;;;;;29.15;17.55;;;;;;;;;;5096669;28;20208;-59
2023/03/01 08:37:02;;;;;;;25.52;17.70;;;;;;;;;;5096552;28;20203;-61
2023/03/01 08:39:29;;;;;;;23.30;17.23;;;;;;;;;;5096138;28;20267;-60
2023/03/01 08:41:55;;;;;;;25.63;16.80;;;;;;;;;;5095939;28;20522;-60
2023/03/01 08:44:21;;;;;;;27.23;16.73;;;;;;;;;;5096268;28;20412;-60
2023/03/01 08:46:51;;;;;;;28.10;17.40;;;;;;;;;;5095882;28;20212;-60
2023/03/01 08:49:18;;;;;;;23.77;16.90;;;;;;;;;;5095501;28;20212;-60
2023/03/01 08:51:44;;;;;;;27.30;18.33;;;;;;;;;;5095804;28;20268;-60
2023/03/01 08:54:12;;;;;;;27.08;17.40;;;;;;;;;;5096737;28;20268;-60
2023/03/01 08:56:38;;;;;;;27.02;17.70;;;;;;;;;;5096069;28;20222;-59
2023/03/01 08:59:04;;;;;;;22.75;16.10;;;;;;;;;;5096684;28;20215;-60
2023/03/01 09:01:31;;;;;;;22.33;16.23;;;;;;;;;;5096200;28;20231;-59
2023/03/01 09:03:58;;;;;;;25.27;17.48;;;;;;;;;;5096049;28;20215;-59
2023/03/01 09:06:24;;;;;;;22.90;16.70;;;;;;;;;;5095867;28;20219;-60
2023/03/01 09:08:51;;;;;;;22.13;16.88;;;;;;;;;;5096338;28;20417;-60
2023/03/01 09:11:18;;;;;;;23.52;16.55;;;;;;;;;;5095801;28;20519;-60
2023/03/01 09:13:45;;;;;;;24.10;16.20;;;;;;;;;;5095843;28;20211;-60
2023/03/01 09:16:12;;;;;;;25.15;17.80;;;;;;;;;;5096050;28;20212;-60
2023/03/01 09:18:38;;;;;;;23.25;16.75;;;;;;;;;;5095373;28;20211;-61
2023/03/01 09:21:07;;;;;;;25.80;17.30;;;;;;;;;;5096268;28;20273;-60
2023/03/01 09:23:34;;;;;;;26.05;16.85;;;;;;;;;;5095690;28;20226;-61
2023/03/01 09:26:00;;;;;;;21.98;16.65;;;;;;;;;;5095367;28;20257;-61
2023/03/01 09:28:26;;;;;;;25.15;17.02;;;;;;;;;;5095762;28;20227;-61
2023/03/01 09:30:53;;;;;;;24.83;17.45;;;;;;;;;;5095592;28;20249;-61
2023/03/01 09:33:19;;;;;;;23.52;16.88;;;;;;;;;;5094974;28;20440;-60
2023/03/01 09:35:46;;;;;;;23.38;16.67;;;;;;;;;;5095641;28;20542;-60
2023/03/01 09:38:14;;;;;;;22.00;15.65;;;;;;;;;;5094999;28;20467;-61
2023/03/01 09:40:45;;;;;;;23.55;16.63;;;;;;;;;;5096256;28;20219;-59
2023/03/01 09:43:16;;;;;;;24.13;17.33;;;;;;;;;;5090014;28;20399;-60
2023/03/01 09:45:45;;;;;;;23.25;17.05;;;;;;;;;;5095086;28;20215;-61
2023/03/01 09:48:16;;;;;;;27.67;16.83;;;;;;;;;;5087457;28;20218;-61
2023/03/01 09:50:44;;;;;;;25.75;16.80;;;;;;;;;;5095848;28;20260;-61
2023/03/01 09:53:11;;;;;;;24.45;17.08;;;;;;;;;;5092022;28;20448;-61
2023/03/01 09:55:42;;;;;;;24.35;17.52;;;;;;;;;;5094619;28;20268;-63
2023/03/01 09:58:20;;;;;;;21.58;16.13;;;;;;;;;;5094532;28;20208;-62
2023/03/01 10:00:48;;;;;;;22.83;16.65;;;;;;;;;;5095232;28;20211;-62
2023/03/01 10:03:18;;;;;;;22.88;16.45;;;;;;;;;;5094496;28;20463;-62
2023/03/01 10:05:50;;;;;;;21.20;16.55;;;;;;;;;;5095260;28;20199;-62
2023/03/01 10:08:33;;;;;;;21.55;16.65;;;;;;;;;;5095246;28;20211;-61
2023/03/01 10:11:01;;;;;;;23.33;16.23;;;;;;;;;;5094694;28;20212;-60
2023/03/01 10:13:30;;;;;;;26.20;15.98;;;;;;;;;;5095078;28;20281;-60
2023/03/01 10:15:58;;;;;;;22.75;16.85;;;;;;;;;;5095484;28;20211;-60
2023/03/01 10:18:26;;;;;;;22.45;16.98;;;;;;;;;;5094434;28;20208;-61
2023/03/01 10:20:54;;;;;;;21.92;16.42;;;;;;;;;;5085794;28;20235;-60
2023/03/01 10:23:21;;;;;;;21.63;17.05;;;;;;;;;;5094015;28;20227;-60
2023/03/01 10:25:50;;;;;;;21.23;15.20;;;;;;;;;;5094753;28;20519;-60
2023/03/01 10:28:20;;;;;;;21.40;16.77;;;;;;;;;;5094454;28;20227;-60
2023/03/01 10:30:47;;;;;;;19.65;16.27;;;;;;;;;;5094321;28;20215;-59
2023/03/01 10:33:16;;;;;;;23.38;16.42;;;;;;;;;;5094597;28;20211;-60
2023/03/01 10:35:43;;;;;;;22.02;15.13;;;;;;;;;;5094902;28;20212;-61
2023/03/01 10:38:10;;;;;;;23.35;16.13;;;;;;;;;;5095173;28;20257;-60
2023/03/01 10:40:37;;;;;;;19.55;15.25;;;;;;;;;;5094456;28;20253;-61
2023/03/01 10:43:04;;;;;;;20.20;15.48;;;;;;;;;;5092701;28;20265;-61
2023/03/01 10:45:35;;;;;;;24.48;16.05;;;;;;;;;;5093837;28;20210;-61
2023/03/01 10:48:06;;;;;;;19.67;16.08;;;;;;;;;;5092605;28;20211;-60
2023/03/01 10:50:33;;;;;;;18.48;15.38;;;;;;;;;;5094636;28;20215;-60
2023/03/01 10:53:00;;;;;;;22.00;15.90;;;;;;;;;;5092982;28;20427;-60
2023/03/01 10:55:28;;;;;;;23.40;16.50;;;;;;;;;;5093363;28;20235;-60
2023/03/01 10:58:07;;;;;;;26.40;16.00;;;;;;;;;;5093248;28;20219;-60
2023/03/01 11:00:45;;;;;;;23.30;15.52;;;;;;;;;;5093856;28;20207;-61
2023/03/01 11:03:12;;;;;;;22.73;15.82;;;;;;;;;;5093631;28;20219;-61
2023/03/01 11:05:50;;;;;;;22.52;15.57;;;;;;;;;;5094696;28;20572;-60
2023/03/01 11:08:29;;;;;;;21.15;15.77;;;;;;;;;;5091612;28;20208;-60
2023/03/01 11:11:04;;;;;;;19.80;15.05;;;;;;;;;;5093913;28;20216;-60
2023/03/01 11:13:30;;;;;;;19.90;15.52;;;;;;;;;;5094645;28;20207;-59
2023/03/01 11:16:02;;;;;;;19.02;15.18;;;;;;;;;;5093946;28;20215;-60
2023/03/01 11:18:30;;;;;;;21.13;15.77;;;;;;;;;;5093981;28;20212;-60
2023/03/01 11:20:56;;;;;;;19.15;15.32;;;;;;;;;;5095212;28;20405;-60
2023/03/01 11:23:23;;;;;;;20.65;15.77;;;;;;;;;;5094217;28;20231;-60
2023/03/01 11:25:52;;;;;;;20.80;15.80;;;;;;;;;;5094258;28;20519;-60
2023/03/01 11:28:19;;;;;;;22.50;15.95;;;;;;;;;;5093208;28;20234;-61
2023/03/01 11:30:49;;;;;;;23.20;16.50;;;;;;;;;;5096776;28;20211;-62
2023/03/01 11:33:21;;;;;;;19.30;14.68;;;;;;;;;;5089209;28;20219;-62
2023/03/01 11:35:50;;;;;;;18.70;14.68;;;;;;;;;;5098129;28;20215;-60
2023/03/01 11:38:18;;;;;;;19.83;16.08;;;;;;;;;;5094232;28;20283;-60
2023/03/01 11:40:47;;;;;;;19.27;14.93;;;;;;;;;;5097517;28;20212;-60
2023/03/01 11:43:17;;;;;;;18.42;15.05;;;;;;;;;;5097398;28;20228;-60
2023/03/01 11:45:48;;;;;;;20.42;15.27;;;;;;;;;;5097089;28;20211;-61
2023/03/01 11:48:31;;;;;;;18.20;14.50;;;;;;;;;;5097286;28;20459;-60
2023/03/01 11:50:58;;;;;;;18.17;14.95;;;;;;;;;;5095673;28;20226;-61
2023/03/01 11:53:33;;;;;;;18.33;14.30;;;;;;;;;;5098062;28;20207;-61
2023/03/01 11:56:03;;;;;;;18.98;13.75;;;;;;;;;;5097630;28;20210;-59
2023/03/01 11:58:44;;;;;;;22.90;14.60;;;;;;;;;;5097434;28;20294;-61
2023/03/01 12:01:16;;;;;;;20.27;14.60;;;;;;;;;;5097306;28;20212;-61
2023/03/01 12:03:59;;;;;;;17.25;14.13;;;;;;;;;;5096429;28;20231;-61
2023/03/01 12:06:32;;;;;;;20.23;15.50;;;;;;;;;;5096087;28;20212;-61
2023/03/01 12:09:03;;;;;;;16.48;14.07;;;;;;;;;;5097601;28;20216;-60
2023/03/01 12:11:37;;;;;;;17.40;14.13;;;;;;;;;;5097499;28;20294;-60
2023/03/01 12:14:13;;;;;;;21.15;14.98;;;;;;;;;;5096395;28;20545;-60
2023/03/01 12:16:54;;;;;;;19.05;14.32;;;;;;;;;;5096941;28;20253;-61
2023/03/01 12:19:27;;;;;;;17.88;14.68;;;;;;;;;;5096291;28;20215;-60
2023/03/01 12:22:05;;;;;;;17.80;13.95;;;;;;;;;;5096735;28;20257;-61
2023/03/01 12:24:49;;;;;;;17.88;14.18;;;;;;;;;;5096186;28;20558;-61
2023/03/01 12:27:23;;;;;;;18.98;13.52;;;;;;;;;;5095479;28;20227;-60
2023/03/01 12:29:51;;;;;;;16.83;13.77;;;;;;;;;;5096478;28;20248;-60
2023/03/01 12:32:26;;;;;;;19.58;13.50;;;;;;;;;;5093961;28;20216;-62
2023/03/01 12:35:12;;;;;;;16.88;14.02;;;;;;;;;;5094806;28;20414;-63
2023/03/01 12:37:42;;;;;;;19.13;14.02;;;;;;;;;;5095538;28;20234;-63
2023/03/01 12:40:20;;;;;;;19.73;14.70;;;;;;;;;;5096902;28;20216;-63
2023/03/01 12:42:51;;;;;;;20.70;14.52;;;;;;;;;;5096595;28;20219;-63
2023/03/01 12:45:26;;;;;;;16.75;13.98;;;;;;;;;;5090836;28;20279;-63
2023/03/01 12:47:58;;;;;;;15.65;14.02;;;;;;;;;;5086676;28;20212;-63
2023/03/01 12:50:30;;;;;;;16.40;14.23;;;;;;;;;;5093029;28;20218;-63
2023/03/01 12:52:57;;;;;;;21.13;16.15;;;;;;;;;;5096322;28;20461;-63
2023/03/01 12:55:27;;;;;;;19.08;14.02;;;;;;;;;;5093266;28;20219;-63
2023/03/01 12:57:55;;;;;;;16.60;13.93;;;;;;;;;;5085482;28;20535;-63
2023/03/01 13:00:26;;;;;;;19.10;14.65;;;;;;;;;;5087283;28;20212;-63
2023/03/01 13:02:55;;;;;;;17.77;14.35;;;;;;;;;;5095461;28;20308;-63
2023/03/01 13:05:30;;;;;;;17.52;13.85;;;;;;;;;;5092685;28;20395;-63
2023/03/01 13:07:59;;;;;;;17.75;15.00;;;;;;;;;;5096116;28;20211;-63
2023/03/01 13:10:30;;;;;;;19.00;13.77;;;;;;;;;;5096113;28;20218;-63
2023/03/01 13:13:11;;;;;;;18.88;14.45;;;;;;;;;;5096216;28;20403;-63
2023/03/01 13:15:39;;;;;;;18.25;14.57;;;;;;;;;;5096867;28;20212;-63
2023/03/01 13:18:26;;;;;;;18.13;14.55;;;;;;;;;;5095183;28;20307;-63
2023/03/01 13:20:55;;;;;;;16.25;13.98;;;;;;;;;;5096321;28;20515;-63
2023/03/01 13:23:26;;;;;;;15.82;13.93;;;;;;;;;;5087013;28;20226;-60
2023/03/01 13:26:07;;;;;;;15.70;14.10;;;;;;;;;;5094721;28;20531;-60
2023/03/01 13:28:40;;;;;;;17.45;12.77;;;;;;;;;;5092303;28;20317;-60
2023/03/01 13:31:07;;;;;;;16.70;13.48;;;;;;;;;;5095210;28;20653;-60
2023/03/01 13:33:40;;;;;;;15.02;13.10;;;;;;;;;;5085972;28;20241;-61
2023/03/01 13:36:10;;;;;;;14.68;12.95;;;;;;;;;;5091396;28;20208;-59
2023/03/01 13:38:37;;;;;;;15.23;13.63;;;;;;;;;;5089682;28;20447;-60
2023/03/01 13:41:04;;;;;;;16.30;12.80;;;;;;;;;;5093173;28;20204;-60
2023/03/01 13:43:32;;;;;;;15.93;13.23;;;;;;;;;;5083571;28;20284;-61
2023/03/01 13:45:58;;;;;;;13.95;12.45;;;;;;;;;;5092902;28;20230;-61
2023/03/01 13:48:26;;;;;;;14.30;12.65;;;;;;;;;;5094396;28;20440;-61
2023/03/01 13:50:55;;;;;;;14.60;12.25;;;;;;;;;;5095697;28;20200;-60
2023/03/01 13:53:25;;;;;;;13.60;11.35;;;;;;;;;;5094081;28;20220;-60
2023/03/01 13:55:54;;;;;;;13.70;11.77;;;;;;;;;;5094618;28;20256;-60
2023/03/01 13:58:22;;;;;;;14.43;12.13;;;;;;;;;;5095233;28;20597;-61
2023/03/01 14:00:55;;;;;;;14.75;13.02;;;;;;;;;;5095417;28;20547;-59
2023/03/01 14:03:21;;;;;;;15.30;12.95;;;;;;;;;;5094303;28;20218;-60
2023/03/01 14:05:58;;;;;;;19.05;12.85;;;;;;;;;;5095580;28;20218;-59
2023/03/01 14:08:27;;;;;;;15.63;11.95;;;;;;;;;;5092668;28;20226;-60
2023/03/01 14:11:11;;;;;;;14.18;11.38;;;;;;;;;;5094167;28;20550;-60
2023/03/01 14:13:49;;;;;;;16.00;11.93;;;;;;;;;;5089460;28;20282;-60
2023/03/01 14:16:21;;;;;;;13.82;12.00;;;;;;;;;;5090251;28;20211;-60
2023/03/01 14:18:53;;;;;;;15.88;12.13;;;;;;;;;;5093471;28;20215;-60
2023/03/01 14:21:19;;;;;;;16.13;12.85;;;;;;;;;;5095242;28;20208;-60
2023/03/01 14:23:47;;;;;;;18.67;13.40;;;;;;;;;;5094903;28;20600;-60
2023/03/01 14:26:13;;;;;;;18.65;13.60;;;;;;;;;;5093759;28;20205;-60